Delta, UT

9:36 PM MDT on August 28, 2015 (GMT -0600)
Oak City | | Change Station
CLOSE
Current Station
Personal Weather Station
Location: Oak City, UT
Elevation: 5066 ft
Nearby Weather Stations

Elev 5066 ft 39.38 °N, 112.34 °W | Updated 42 seconds ago

Clear
Clear
76.5 °F
Feels Like 77 °F
N
4.0
Wind Variable Wind from ESE
Gusts 7.0 mph

Today
High -- | Low -- °F
--% Chance of Precip.
Yesterday
High -- | Low -- °F
Precip. -- in
6:54 AM 8:07 PM
Waxing Gibbous, 99% visible
Pressure 30.09 in
Visibility 8.0 miles
Clouds Clear
Heat Index 77 °F
Dew Point 34 °F
Humidity 21%
Rainfall 0.00 in
Snow Depth Not available.
UV 0 out of 12
Pollen 8.70 out of 12
Air Quality Not available.
Flu Activity Not available.
METAR KPVU 290335Z AUTO 16005KT 8SM CLR 22/07 A3009 RMK AO1
Pressure 30.09 in
Visibility 8.0 miles
Clouds Clear
Heat Index 77 °F
Dew Point 34 °F
Humidity 21%
Rainfall 0.00 in
Snow Depth Not available.
UV 0 out of 12
Pollen 8.70 out of 12
Air Quality Not available.
Flu Activity Not available.
METAR KPVU 290335Z AUTO 16005KT 8SM CLR 22/07 A3009 RMK AO1

10-Day Weather Forecast

×

Almanac

Astronomy

Aug. 28, 2015 Rise Set
Actual Time
Civil Twilight
Nautical Twilight
Astronomical Twilight
Moon
Length of Visible Light
Length of Day
Tomorrow will be .
, % of the Moon is Illuminated

Today's Extremes

State Highs State Lows

Community

WunderPhotos

Upload Photos

1,850,609 photos uploaded!

WunderBlogs® & News

Nearby

Air Quality

  Air Quality AQ Index Pollutant
Not available.

Snow Depth

Station Depth Elevation

Earthquake Activity

City Distance Mag. Time & Date
Minimum magnitude displayed is 2.5.

Coastal Water Temperatures

Place Temperature

Stations

Nearby Weather Stations

Station Location Temp. Windchill Dew Point Humidity Wind Precip. Elev Updated Type